sensor_id;sensor_type;location;lat;lon;timestamp;P1;durP1;ratioP1;P2;durP2;ratioP2
20065;SDS011;10193;48.884;9.182;2023-06-24T00:00:20;3.05;;;2.85;;
20065;SDS011;10193;48.884;9.182;2023-06-24T00:02:47;3.00;;;2.80;;
20065;SDS011;10193;48.884;9.182;2023-06-24T00:05:16;3.28;;;2.80;;
20065;SDS011;10193;48.884;9.182;2023-06-24T00:07:42;2.92;;;2.72;;
20065;SDS011;10193;48.884;9.182;2023-06-24T00:10:10;2.92;;;2.72;;
20065;SDS011;10193;48.884;9.182;2023-06-24T00:12:37;2.80;;;2.60;;
20065;SDS011;10193;48.884;9.182;2023-06-24T00:15:06;3.15;;;2.85;;
20065;SDS011;10193;48.884;9.182;2023-06-24T00:17:34;3.15;;;2.95;;
20065;SDS011;10193;48.884;9.182;2023-06-24T00:20:00;3.17;;;2.88;;
20065;SDS011;10193;48.884;9.182;2023-06-24T00:22:32;3.08;;;2.88;;
20065;SDS011;10193;48.884;9.182;2023-06-24T00:24:59;2.80;;;2.60;;
20065;SDS011;10193;48.884;9.182;2023-06-24T00:27:26;3.30;;;3.00;;
20065;SDS011;10193;48.884;9.182;2023-06-24T00:29:52;3.17;;;2.97;;
20065;SDS011;10193;48.884;9.182;2023-06-24T00:32:20;3.33;;;3.03;;
20065;SDS011;10193;48.884;9.182;2023-06-24T00:34:47;3.47;;;3.17;;
20065;SDS011;10193;48.884;9.182;2023-06-24T00:37:15;2.80;;;2.60;;
20065;SDS011;10193;48.884;9.182;2023-06-24T00:39:41;2.78;;;2.58;;
20065;SDS011;10193;48.884;9.182;2023-06-24T00:42:08;3.58;;;3.28;;
20065;SDS011;10193;48.884;9.182;2023-06-24T00:44:35;3.17;;;2.97;;
20065;SDS011;10193;48.884;9.182;2023-06-24T00:47:02;3.42;;;3.00;;
20065;SDS011;10193;48.884;9.182;2023-06-24T00:49:30;2.88;;;2.63;;
20065;SDS011;10193;48.884;9.182;2023-06-24T00:51:57;3.42;;;2.90;;
20065;SDS011;10193;48.884;9.182;2023-06-24T00:54:25;3.10;;;2.80;;
20065;SDS011;10193;48.884;9.182;2023-06-24T00:56:56;2.95;;;2.75;;
20065;SDS011;10193;48.884;9.182;2023-06-24T00:59:25;3.25;;;2.95;;
20065;SDS011;10193;48.884;9.182;2023-06-24T01:01:56;2.92;;;2.72;;
20065;SDS011;10193;48.884;9.182;2023-06-24T01:04:22;2.83;;;2.60;;
20065;SDS011;10193;48.884;9.182;2023-06-24T01:06:51;3.20;;;3.00;;
20065;SDS011;10193;48.884;9.182;2023-06-24T01:09:18;3.22;;;2.78;;
20065;SDS011;10193;48.884;9.182;2023-06-24T01:11:46;2.88;;;2.67;;
20065;SDS011;10193;48.884;9.182;2023-06-24T01:14:13;3.35;;;3.05;;
20065;SDS011;10193;48.884;9.182;2023-06-24T01:16:46;3.20;;;3.00;;
20065;SDS011;10193;48.884;9.182;2023-06-24T01:19:25;3.50;;;3.20;;
20065;SDS011;10193;48.884;9.182;2023-06-24T01:22:19;3.17;;;2.97;;
20065;SDS011;10193;48.884;9.182;2023-06-24T01:25:01;3.10;;;2.90;;
20065;SDS011;10193;48.884;9.182;2023-06-24T01:27:45;2.97;;;2.78;;
20065;SDS011;10193;48.884;9.182;2023-06-24T01:30:38;3.10;;;2.90;;
20065;SDS011;10193;48.884;9.182;2023-06-24T01:33:20;3.00;;;2.80;;
20065;SDS011;10193;48.884;9.182;2023-06-24T01:35:51;3.10;;;2.90;;
20065;SDS011;10193;48.884;9.182;2023-06-24T01:38:22;3.40;;;3.05;;
20065;SDS011;10193;48.884;9.182;2023-06-24T01:40:50;5.20;;;3.30;;
20065;SDS011;10193;48.884;9.182;2023-06-24T01:43:19;3.50;;;3.20;;
20065;SDS011;10193;48.884;9.182;2023-06-24T01:45:49;3.50;;;3.20;;
20065;SDS011;10193;48.884;9.182;2023-06-24T01:48:21;3.42;;;3.13;;
20065;SDS011;10193;48.884;9.182;2023-06-24T01:50:53;3.00;;;2.80;;
20065;SDS011;10193;48.884;9.182;2023-06-24T01:53:23;3.20;;;2.90;;
20065;SDS011;10193;48.884;9.182;2023-06-24T01:55:53;3.45;;;3.15;;
20065;SDS011;10193;48.884;9.182;2023-06-24T01:58:20;3.35;;;3.05;;
20065;SDS011;10193;48.884;9.182;2023-06-24T02:00:48;3.40;;;3.10;;
20065;SDS011;10193;48.884;9.182;2023-06-24T02:03:16;3.55;;;3.25;;
20065;SDS011;10193;48.884;9.182;2023-06-24T02:05:45;3.25;;;3.05;;
20065;SDS011;10193;48.884;9.182;2023-06-24T02:08:13;3.47;;;3.17;;
20065;SDS011;10193;48.884;9.182;2023-06-24T02:10:41;5.13;;;3.20;;
20065;SDS011;10193;48.884;9.182;2023-06-24T02:13:09;3.50;;;3.20;;
20065;SDS011;10193;48.884;9.182;2023-06-24T02:15:37;3.40;;;3.10;;
20065;SDS011;10193;48.884;9.182;2023-06-24T02:18:06;3.22;;;3.03;;
20065;SDS011;10193;48.884;9.182;2023-06-24T02:20:35;3.42;;;3.13;;
20065;SDS011;10193;48.884;9.182;2023-06-24T02:23:05;3.80;;;3.50;;
20065;SDS011;10193;48.884;9.182;2023-06-24T02:25:34;3.50;;;3.20;;
20065;SDS011;10193;48.884;9.182;2023-06-24T02:28:04;3.33;;;3.05;;
20065;SDS011;10193;48.884;9.182;2023-06-24T02:30:32;3.92;;;3.53;;
20065;SDS011;10193;48.884;9.182;2023-06-24T02:33:00;3.97;;;3.33;;
20065;SDS011;10193;48.884;9.182;2023-06-24T02:35:27;3.25;;;3.03;;
20065;SDS011;10193;48.884;9.182;2023-06-24T02:37:54;3.53;;;3.22;;
20065;SDS011;10193;48.884;9.182;2023-06-24T02:40:22;3.33;;;3.08;;
20065;SDS011;10193;48.884;9.182;2023-06-24T02:42:49;3.55;;;3.25;;
20065;SDS011;10193;48.884;9.182;2023-06-24T02:45:16;3.40;;;3.10;;
20065;SDS011;10193;48.884;9.182;2023-06-24T02:47:43;3.58;;;3.28;;
20065;SDS011;10193;48.884;9.182;2023-06-24T02:50:12;3.38;;;3.08;;
20065;SDS011;10193;48.884;9.182;2023-06-24T02:52:39;3.78;;;3.47;;
20065;SDS011;10193;48.884;9.182;2023-06-24T02:55:06;4.00;;;2.92;;
20065;SDS011;10193;48.884;9.182;2023-06-24T02:57:35;3.40;;;3.20;;
20065;SDS011;10193;48.884;9.182;2023-06-24T03:00:04;3.63;;;3.33;;
20065;SDS011;10193;48.884;9.182;2023-06-24T03:02:33;3.45;;;3.17;;
20065;SDS011;10193;48.884;9.182;2023-06-24T03:05:01;3.65;;;3.35;;
20065;SDS011;10193;48.884;9.182;2023-06-24T03:07:29;3.10;;;2.90;;
20065;SDS011;10193;48.884;9.182;2023-06-24T03:09:59;3.95;;;3.65;;
20065;SDS011;10193;48.884;9.182;2023-06-24T03:12:26;3.50;;;3.20;;
20065;SDS011;10193;48.884;9.182;2023-06-24T03:14:54;4.03;;;3.60;;
20065;SDS011;10193;48.884;9.182;2023-06-24T03:17:21;3.65;;;3.35;;
20065;SDS011;10193;48.884;9.182;2023-06-24T03:19:47;3.55;;;3.25;;
20065;SDS011;10193;48.884;9.182;2023-06-24T03:22:14;4.45;;;3.30;;
20065;SDS011;10193;48.884;9.182;2023-06-24T03:24:42;3.97;;;3.67;;
20065;SDS011;10193;48.884;9.182;2023-06-24T03:27:08;4.00;;;3.60;;
20065;SDS011;10193;48.884;9.182;2023-06-24T03:29:35;3.90;;;3.60;;
20065;SDS011;10193;48.884;9.182;2023-06-24T03:32:03;4.00;;;3.70;;
20065;SDS011;10193;48.884;9.182;2023-06-24T03:34:30;3.78;;;3.47;;
20065;SDS011;10193;48.884;9.182;2023-06-24T03:36:57;3.78;;;3.47;;
20065;SDS011;10193;48.884;9.182;2023-06-24T03:39:24;4.07;;;3.72;;
20065;SDS011;10193;48.884;9.182;2023-06-24T03:41:51;3.80;;;3.50;;
20065;SDS011;10193;48.884;9.182;2023-06-24T03:44:17;3.67;;;3.38;;
20065;SDS011;10193;48.884;9.182;2023-06-24T03:46:45;3.60;;;3.30;;
20065;SDS011;10193;48.884;9.182;2023-06-24T03:49:13;3.92;;;3.63;;
20065;SDS011;10193;48.884;9.182;2023-06-24T03:51:39;3.90;;;3.60;;
20065;SDS011;10193;48.884;9.182;2023-06-24T03:54:06;3.72;;;3.42;;
20065;SDS011;10193;48.884;9.182;2023-06-24T03:56:33;3.80;;;3.50;;
20065;SDS011;10193;48.884;9.182;2023-06-24T03:58:59;4.40;;;4.00;;
20065;SDS011;10193;48.884;9.182;2023-06-24T04:01:26;3.92;;;3.63;;
20065;SDS011;10193;48.884;9.182;2023-06-24T04:03:56;4.10;;;3.80;;
20065;SDS011;10193;48.884;9.182;2023-06-24T04:06:24;4.15;;;3.72;;
20065;SDS011;10193;48.884;9.182;2023-06-24T04:08:51;4.80;;;4.25;;
20065;SDS011;10193;48.884;9.182;2023-06-24T04:11:18;4.00;;;3.70;;
20065;SDS011;10193;48.884;9.182;2023-06-24T04:13:44;4.30;;;3.90;;
20065;SDS011;10193;48.884;9.182;2023-06-24T04:16:13;4.07;;;3.78;;
20065;SDS011;10193;48.884;9.182;2023-06-24T04:18:40;3.65;;;3.35;;
20065;SDS011;10193;48.884;9.182;2023-06-24T04:21:07;4.10;;;3.70;;
20065;SDS011;10193;48.884;9.182;2023-06-24T04:23:34;3.88;;;3.55;;
20065;SDS011;10193;48.884;9.182;2023-06-24T04:26:01;4.53;;;4.05;;
20065;SDS011;10193;48.884;9.182;2023-06-24T04:28:28;4.00;;;3.70;;
20065;SDS011;10193;48.884;9.182;2023-06-24T04:30:55;4.00;;;3.70;;
20065;SDS011;10193;48.884;9.182;2023-06-24T04:33:22;4.88;;;3.90;;
20065;SDS011;10193;48.884;9.182;2023-06-24T04:35:49;4.30;;;3.90;;
20065;SDS011;10193;48.884;9.182;2023-06-24T04:38:17;4.15;;;3.85;;
20065;SDS011;10193;48.884;9.182;2023-06-24T04:40:45;4.10;;;3.80;;
20065;SDS011;10193;48.884;9.182;2023-06-24T04:43:12;4.10;;;3.80;;
20065;SDS011;10193;48.884;9.182;2023-06-24T04:45:38;4.30;;;3.90;;
20065;SDS011;10193;48.884;9.182;2023-06-24T04:48:05;4.07;;;3.78;;
20065;SDS011;10193;48.884;9.182;2023-06-24T04:50:32;4.45;;;3.50;;
20065;SDS011;10193;48.884;9.182;2023-06-24T04:52:58;4.03;;;3.72;;
20065;SDS011;10193;48.884;9.182;2023-06-24T04:55:26;4.25;;;3.95;;
20065;SDS011;10193;48.884;9.182;2023-06-24T04:57:56;4.72;;;3.95;;
20065;SDS011;10193;48.884;9.182;2023-06-24T05:00:22;4.07;;;3.78;;
20065;SDS011;10193;48.884;9.182;2023-06-24T05:02:49;3.88;;;3.58;;
20065;SDS011;10193;48.884;9.182;2023-06-24T05:05:16;3.95;;;3.63;;
20065;SDS011;10193;48.884;9.182;2023-06-24T05:07:44;3.97;;;3.53;;
20065;SDS011;10193;48.884;9.182;2023-06-24T05:10:10;4.13;;;3.75;;
20065;SDS011;10193;48.884;9.182;2023-06-24T05:12:37;3.83;;;3.53;;
20065;SDS011;10193;48.884;9.182;2023-06-24T05:15:05;4.13;;;3.78;;
20065;SDS011;10193;48.884;9.182;2023-06-24T05:17:33;4.60;;;4.20;;
20065;SDS011;10193;48.884;9.182;2023-06-24T05:19:59;4.22;;;3.78;;
20065;SDS011;10193;48.884;9.182;2023-06-24T05:22:26;3.95;;;3.65;;
20065;SDS011;10193;48.884;9.182;2023-06-24T05:24:53;4.57;;;4.10;;
20065;SDS011;10193;48.884;9.182;2023-06-24T05:27:19;4.90;;;4.25;;
20065;SDS011;10193;48.884;9.182;2023-06-24T05:29:46;4.40;;;4.00;;
20065;SDS011;10193;48.884;9.182;2023-06-24T05:32:14;4.35;;;4.05;;
20065;SDS011;10193;48.884;9.182;2023-06-24T05:34:42;4.40;;;4.10;;
20065;SDS011;10193;48.884;9.182;2023-06-24T05:37:09;4.43;;;3.88;;
20065;SDS011;10193;48.884;9.182;2023-06-24T05:39:35;4.32;;;3.92;;
20065;SDS011;10193;48.884;9.182;2023-06-24T05:42:02;3.95;;;3.65;;
20065;SDS011;10193;48.884;9.182;2023-06-24T05:44:29;3.92;;;3.63;;
20065;SDS011;10193;48.884;9.182;2023-06-24T05:46:56;4.00;;;3.70;;
20065;SDS011;10193;48.884;9.182;2023-06-24T05:49:24;3.72;;;3.42;;
20065;SDS011;10193;48.884;9.182;2023-06-24T05:51:50;3.60;;;3.30;;
20065;SDS011;10193;48.884;9.182;2023-06-24T05:54:17;3.50;;;3.20;;
20065;SDS011;10193;48.884;9.182;2023-06-24T05:56:44;3.53;;;3.22;;
20065;SDS011;10193;48.884;9.182;2023-06-24T05:59:10;3.67;;;3.38;;
20065;SDS011;10193;48.884;9.182;2023-06-24T06:01:37;3.58;;;3.28;;
20065;SDS011;10193;48.884;9.182;2023-06-24T06:04:04;3.55;;;3.25;;
20065;SDS011;10193;48.884;9.182;2023-06-24T06:06:32;3.72;;;3.42;;
20065;SDS011;10193;48.884;9.182;2023-06-24T06:08:59;3.90;;;3.60;;
20065;SDS011;10193;48.884;9.182;2023-06-24T06:11:25;3.45;;;3.20;;
20065;SDS011;10193;48.884;9.182;2023-06-24T06:13:52;3.20;;;3.00;;
20065;SDS011;10193;48.884;9.182;2023-06-24T06:16:19;3.35;;;3.15;;
20065;SDS011;10193;48.884;9.182;2023-06-24T06:18:46;3.13;;;2.92;;
20065;SDS011;10193;48.884;9.182;2023-06-24T06:21:12;3.35;;;3.15;;
20065;SDS011;10193;48.884;9.182;2023-06-24T06:23:40;3.60;;;3.40;;
20065;SDS011;10193;48.884;9.182;2023-06-24T06:26:07;3.78;;;3.47;;
20065;SDS011;10193;48.884;9.182;2023-06-24T06:28:34;3.25;;;3.05;;
20065;SDS011;10193;48.884;9.182;2023-06-24T06:31:00;3.28;;;3.08;;
20065;SDS011;10193;48.884;9.182;2023-06-24T06:33:27;3.60;;;3.30;;
20065;SDS011;10193;48.884;9.182;2023-06-24T06:35:53;3.20;;;3.00;;
20065;SDS011;10193;48.884;9.182;2023-06-24T06:38:20;3.60;;;3.30;;
20065;SDS011;10193;48.884;9.182;2023-06-24T06:40:48;3.33;;;3.13;;
20065;SDS011;10193;48.884;9.182;2023-06-24T06:43:15;3.42;;;3.22;;
20065;SDS011;10193;48.884;9.182;2023-06-24T06:45:41;3.20;;;3.00;;
20065;SDS011;10193;48.884;9.182;2023-06-24T06:48:08;3.05;;;2.85;;
20065;SDS011;10193;48.884;9.182;2023-06-24T06:50:35;3.88;;;2.80;;
20065;SDS011;10193;48.884;9.182;2023-06-24T06:53:01;3.13;;;2.83;;
20065;SDS011;10193;48.884;9.182;2023-06-24T06:55:28;3.20;;;3.00;;
20065;SDS011;10193;48.884;9.182;2023-06-24T06:57:56;3.30;;;3.00;;
20065;SDS011;10193;48.884;9.182;2023-06-24T07:00:23;3.17;;;2.97;;
20065;SDS011;10193;48.884;9.182;2023-06-24T07:02:49;3.20;;;3.00;;
20065;SDS011;10193;48.884;9.182;2023-06-24T07:05:16;3.08;;;2.88;;
20065;SDS011;10193;48.884;9.182;2023-06-24T07:07:43;2.90;;;2.70;;
20065;SDS011;10193;48.884;9.182;2023-06-24T07:10:10;3.38;;;3.13;;
20065;SDS011;10193;48.884;9.182;2023-06-24T07:12:37;3.00;;;2.80;;
20065;SDS011;10193;48.884;9.182;2023-06-24T07:15:06;3.38;;;3.08;;
20065;SDS011;10193;48.884;9.182;2023-06-24T07:17:33;2.95;;;2.75;;
20065;SDS011;10193;48.884;9.182;2023-06-24T07:19:59;2.72;;;2.58;;
20065;SDS011;10193;48.884;9.182;2023-06-24T07:22:26;3.10;;;2.90;;
20065;SDS011;10193;48.884;9.182;2023-06-24T07:24:53;3.05;;;2.85;;
20065;SDS011;10193;48.884;9.182;2023-06-24T07:27:21;2.78;;;2.60;;
20065;SDS011;10193;48.884;9.182;2023-06-24T07:29:47;3.20;;;3.00;;
20065;SDS011;10193;48.884;9.182;2023-06-24T07:32:15;3.25;;;2.95;;
20065;SDS011;10193;48.884;9.182;2023-06-24T07:34:42;2.92;;;2.78;;
20065;SDS011;10193;48.884;9.182;2023-06-24T07:37:09;2.83;;;2.67;;
20065;SDS011;10193;48.884;9.182;2023-06-24T07:39:35;2.75;;;2.55;;
20065;SDS011;10193;48.884;9.182;2023-06-24T07:42:02;3.00;;;2.80;;
20065;SDS011;10193;48.884;9.182;2023-06-24T07:44:29;2.65;;;2.45;;
20065;SDS011;10193;48.884;9.182;2023-06-24T07:46:56;2.90;;;2.70;;
20065;SDS011;10193;48.884;9.182;2023-06-24T07:49:24;2.70;;;2.60;;
20065;SDS011;10193;48.884;9.182;2023-06-24T07:51:51;2.88;;;2.67;;
20065;SDS011;10193;48.884;9.182;2023-06-24T07:54:18;3.20;;;3.00;;
20065;SDS011;10193;48.884;9.182;2023-06-24T07:56:44;3.20;;;3.00;;
20065;SDS011;10193;48.884;9.182;2023-06-24T07:59:11;2.95;;;2.75;;
20065;SDS011;10193;48.884;9.182;2023-06-24T08:01:38;2.72;;;2.63;;
20065;SDS011;10193;48.884;9.182;2023-06-24T08:04:04;2.90;;;2.70;;
20065;SDS011;10193;48.884;9.182;2023-06-24T08:06:33;2.60;;;2.40;;
20065;SDS011;10193;48.884;9.182;2023-06-24T08:08:59;2.80;;;2.60;;
20065;SDS011;10193;48.884;9.182;2023-06-24T08:11:26;2.80;;;2.60;;
20065;SDS011;10193;48.884;9.182;2023-06-24T08:13:53;2.58;;;2.47;;
20065;SDS011;10193;48.884;9.182;2023-06-24T08:16:20;2.40;;;2.30;;
20065;SDS011;10193;48.884;9.182;2023-06-24T08:18:46;2.63;;;2.47;;
20065;SDS011;10193;48.884;9.182;2023-06-24T08:21:13;2.90;;;2.60;;
20065;SDS011;10193;48.884;9.182;2023-06-24T08:23:41;2.60;;;2.50;;
20065;SDS011;10193;48.884;9.182;2023-06-24T08:26:07;2.63;;;2.53;;
20065;SDS011;10193;48.884;9.182;2023-06-24T08:28:34;2.78;;;2.58;;
20065;SDS011;10193;48.884;9.182;2023-06-24T08:31:01;2.65;;;2.45;;
20065;SDS011;10193;48.884;9.182;2023-06-24T08:33:28;2.60;;;2.40;;
20065;SDS011;10193;48.884;9.182;2023-06-24T08:35:54;2.95;;;2.75;;
20065;SDS011;10193;48.884;9.182;2023-06-24T08:38:21;2.60;;;2.40;;
20065;SDS011;10193;48.884;9.182;2023-06-24T08:40:49;2.63;;;2.42;;
20065;SDS011;10193;48.884;9.182;2023-06-24T08:43:16;2.42;;;2.22;;
20065;SDS011;10193;48.884;9.182;2023-06-24T08:45:42;2.53;;;2.33;;
20065;SDS011;10193;48.884;9.182;2023-06-24T08:48:09;2.50;;;2.35;;
20065;SDS011;10193;48.884;9.182;2023-06-24T08:50:38;2.47;;;2.38;;
20065;SDS011;10193;48.884;9.182;2023-06-24T08:53:12;2.53;;;2.33;;
20065;SDS011;10193;48.884;9.182;2023-06-24T08:55:40;2.33;;;2.22;;
20065;SDS011;10193;48.884;9.182;2023-06-24T08:58:10;2.10;;;2.00;;
20065;SDS011;10193;48.884;9.182;2023-06-24T09:00:37;2.05;;;1.95;;
20065;SDS011;10193;48.884;9.182;2023-06-24T09:03:04;2.50;;;2.30;;
20065;SDS011;10193;48.884;9.182;2023-06-24T09:05:30;2.47;;;2.28;;
20065;SDS011;10193;48.884;9.182;2023-06-24T09:07:57;2.20;;;2.10;;
20065;SDS011;10193;48.884;9.182;2023-06-24T09:10:30;2.30;;;2.20;;
20065;SDS011;10193;48.884;9.182;2023-06-24T09:12:58;2.50;;;2.30;;
20065;SDS011;10193;48.884;9.182;2023-06-24T09:15:26;2.30;;;2.17;;
20065;SDS011;10193;48.884;9.182;2023-06-24T09:17:56;2.75;;;2.55;;
20065;SDS011;10193;48.884;9.182;2023-06-24T09:20:22;2.42;;;2.33;;
20065;SDS011;10193;48.884;9.182;2023-06-24T09:22:50;3.05;;;2.40;;
20065;SDS011;10193;48.884;9.182;2023-06-24T09:25:17;2.40;;;2.30;;
20065;SDS011;10193;48.884;9.182;2023-06-24T09:27:46;2.38;;;2.28;;
20065;SDS011;10193;48.884;9.182;2023-06-24T09:30:17;2.28;;;2.17;;
20065;SDS011;10193;48.884;9.182;2023-06-24T09:32:46;2.05;;;1.95;;
20065;SDS011;10193;48.884;9.182;2023-06-24T09:35:13;2.72;;;2.17;;
20065;SDS011;10193;48.884;9.182;2023-06-24T09:37:40;2.45;;;2.25;;
20065;SDS011;10193;48.884;9.182;2023-06-24T09:40:07;2.42;;;2.33;;
20065;SDS011;10193;48.884;9.182;2023-06-24T09:42:35;2.53;;;2.33;;
20065;SDS011;10193;48.884;9.182;2023-06-24T09:45:04;3.17;;;2.22;;
20065;SDS011;10193;48.884;9.182;2023-06-24T09:47:31;2.25;;;2.15;;
20065;SDS011;10193;48.884;9.182;2023-06-24T09:49:59;2.00;;;1.90;;
20065;SDS011;10193;48.884;9.182;2023-06-24T09:52:26;2.40;;;2.30;;
20065;SDS011;10193;48.884;9.182;2023-06-24T09:54:54;2.20;;;2.10;;
20065;SDS011;10193;48.884;9.182;2023-06-24T09:57:24;2.28;;;2.08;;
20065;SDS011;10193;48.884;9.182;2023-06-24T09:59:54;2.30;;;2.20;;
20065;SDS011;10193;48.884;9.182;2023-06-24T10:02:23;1.85;;;1.75;;
20065;SDS011;10193;48.884;9.182;2023-06-24T10:04:50;2.20;;;2.10;;
20065;SDS011;10193;48.884;9.182;2023-06-24T10:07:20;2.33;;;2.22;;
20065;SDS011;10193;48.884;9.182;2023-06-24T10:09:47;2.30;;;2.20;;
20065;SDS011;10193;48.884;9.182;2023-06-24T10:12:13;2.22;;;2.03;;
20065;SDS011;10193;48.884;9.182;2023-06-24T10:14:40;2.42;;;2.22;;
20065;SDS011;10193;48.884;9.182;2023-06-24T10:17:07;2.20;;;2.10;;
20065;SDS011;10193;48.884;9.182;2023-06-24T10:19:37;2.30;;;2.20;;
20065;SDS011;10193;48.884;9.182;2023-06-24T10:22:07;2.25;;;2.15;;
20065;SDS011;10193;48.884;9.182;2023-06-24T10:24:36;2.30;;;2.20;;
20065;SDS011;10193;48.884;9.182;2023-06-24T10:27:08;2.10;;;2.00;;
20065;SDS011;10193;48.884;9.182;2023-06-24T10:29:39;2.05;;;1.95;;
20065;SDS011;10193;48.884;9.182;2023-06-24T10:32:10;2.10;;;2.00;;
20065;SDS011;10193;48.884;9.182;2023-06-24T10:34:40;2.05;;;1.95;;
20065;SDS011;10193;48.884;9.182;2023-06-24T10:37:09;2.22;;;2.13;;
20065;SDS011;10193;48.884;9.182;2023-06-24T10:39:45;1.98;;;1.88;;
20065;SDS011;10193;48.884;9.182;2023-06-24T10:42:24;1.90;;;1.80;;
20065;SDS011;10193;48.884;9.182;2023-06-24T10:44:56;2.05;;;1.95;;
20065;SDS011;10193;48.884;9.182;2023-06-24T10:47:24;2.20;;;2.10;;
20065;SDS011;10193;48.884;9.182;2023-06-24T10:49:51;2.17;;;1.98;;
20065;SDS011;10193;48.884;9.182;2023-06-24T10:52:19;2.17;;;2.08;;
20065;SDS011;10193;48.884;9.182;2023-06-24T10:54:48;2.05;;;1.95;;
20065;SDS011;10193;48.884;9.182;2023-06-24T10:57:20;1.90;;;1.80;;
20065;SDS011;10193;48.884;9.182;2023-06-24T10:59:49;2.20;;;2.10;;
20065;SDS011;10193;48.884;9.182;2023-06-24T11:02:16;2.22;;;2.13;;
20065;SDS011;10193;48.884;9.182;2023-06-24T11:04:44;2.47;;;2.30;;
20065;SDS011;10193;48.884;9.182;2023-06-24T11:07:11;3.47;;;2.22;;
20065;SDS011;10193;48.884;9.182;2023-06-24T11:09:38;1.90;;;1.80;;
20065;SDS011;10193;48.884;9.182;2023-06-24T11:12:09;2.25;;;2.15;;
20065;SDS011;10193;48.884;9.182;2023-06-24T11:14:37;2.20;;;2.10;;
20065;SDS011;10193;48.884;9.182;2023-06-24T11:17:05;2.30;;;2.20;;
20065;SDS011;10193;48.884;9.182;2023-06-24T11:19:32;1.90;;;1.80;;
20065;SDS011;10193;48.884;9.182;2023-06-24T11:22:01;2.30;;;2.20;;
20065;SDS011;10193;48.884;9.182;2023-06-24T11:24:28;2.03;;;1.92;;
20065;SDS011;10193;48.884;9.182;2023-06-24T11:26:55;2.50;;;2.35;;
20065;SDS011;10193;48.884;9.182;2023-06-24T11:29:24;2.47;;;2.28;;
20065;SDS011;10193;48.884;9.182;2023-06-24T11:31:54;2.15;;;2.05;;
20065;SDS011;10193;48.884;9.182;2023-06-24T11:34:21;2.10;;;2.00;;
20065;SDS011;10193;48.884;9.182;2023-06-24T11:36:48;2.20;;;2.05;;
20065;SDS011;10193;48.884;9.182;2023-06-24T11:39:21;1.88;;;1.77;;
20065;SDS011;10193;48.884;9.182;2023-06-24T11:41:49;2.20;;;2.10;;
20065;SDS011;10193;48.884;9.182;2023-06-24T11:44:17;2.22;;;2.05;;
20065;SDS011;10193;48.884;9.182;2023-06-24T11:46:46;2.30;;;2.20;;
20065;SDS011;10193;48.884;9.182;2023-06-24T11:49:13;2.08;;;1.98;;
20065;SDS011;10193;48.884;9.182;2023-06-24T11:51:45;2.15;;;2.05;;
20065;SDS011;10193;48.884;9.182;2023-06-24T11:54:14;2.17;;;2.00;;
20065;SDS011;10193;48.884;9.182;2023-06-24T11:56:42;2.30;;;2.10;;
20065;SDS011;10193;48.884;9.182;2023-06-24T11:59:15;2.15;;;2.05;;
20065;SDS011;10193;48.884;9.182;2023-06-24T12:01:43;2.20;;;2.10;;
20065;SDS011;10193;48.884;9.182;2023-06-24T12:04:11;2.10;;;2.00;;
20065;SDS011;10193;48.884;9.182;2023-06-24T12:06:38;2.08;;;1.98;;
20065;SDS011;10193;48.884;9.182;2023-06-24T12:09:05;2.20;;;2.10;;
20065;SDS011;10193;48.884;9.182;2023-06-24T12:11:31;2.40;;;2.30;;
20065;SDS011;10193;48.884;9.182;2023-06-24T12:13:58;2.10;;;2.00;;
20065;SDS011;10193;48.884;9.182;2023-06-24T12:16:25;2.20;;;2.10;;
20065;SDS011;10193;48.884;9.182;2023-06-24T12:18:52;1.90;;;1.80;;
20065;SDS011;10193;48.884;9.182;2023-06-24T12:21:20;2.05;;;1.95;;
20065;SDS011;10193;48.884;9.182;2023-06-24T12:23:47;2.22;;;2.13;;
20065;SDS011;10193;48.884;9.182;2023-06-24T12:26:14;2.20;;;2.10;;
20065;SDS011;10193;48.884;9.182;2023-06-24T12:28:41;2.30;;;2.20;;
20065;SDS011;10193;48.884;9.182;2023-06-24T12:31:08;2.03;;;1.92;;
20065;SDS011;10193;48.884;9.182;2023-06-24T12:33:34;2.20;;;2.10;;
20065;SDS011;10193;48.884;9.182;2023-06-24T12:36:01;2.05;;;1.95;;
20065;SDS011;10193;48.884;9.182;2023-06-24T12:38:29;2.60;;;2.08;;
20065;SDS011;10193;48.884;9.182;2023-06-24T12:40:56;2.00;;;1.90;;
20065;SDS011;10193;48.884;9.182;2023-06-24T12:43:23;1.90;;;1.80;;
20065;SDS011;10193;48.884;9.182;2023-06-24T12:45:49;2.20;;;2.10;;
20065;SDS011;10193;48.884;9.182;2023-06-24T12:48:16;1.90;;;1.80;;
20065;SDS011;10193;48.884;9.182;2023-06-24T12:50:43;2.50;;;2.20;;
20065;SDS011;10193;48.884;9.182;2023-06-24T12:53:10;2.10;;;2.00;;
20065;SDS011;10193;48.884;9.182;2023-06-24T12:55:40;2.20;;;2.10;;
20065;SDS011;10193;48.884;9.182;2023-06-24T12:58:07;2.00;;;1.90;;
20065;SDS011;10193;48.884;9.182;2023-06-24T13:00:33;2.17;;;2.00;;
20065;SDS011;10193;48.884;9.182;2023-06-24T13:03:00;2.20;;;2.08;;
20065;SDS011;10193;48.884;9.182;2023-06-24T13:05:27;2.17;;;2.08;;
20065;SDS011;10193;48.884;9.182;2023-06-24T13:07:53;2.25;;;2.15;;
20065;SDS011;10193;48.884;9.182;2023-06-24T13:10:20;2.10;;;2.00;;
20065;SDS011;10193;48.884;9.182;2023-06-24T13:12:48;2.50;;;2.40;;
20065;SDS011;10193;48.884;9.182;2023-06-24T13:15:15;2.17;;;2.08;;
20065;SDS011;10193;48.884;9.182;2023-06-24T13:17:42;2.15;;;2.05;;
20065;SDS011;10193;48.884;9.182;2023-06-24T13:20:09;2.30;;;2.20;;
20065;SDS011;10193;48.884;9.182;2023-06-24T13:22:36;2.33;;;2.22;;
20065;SDS011;10193;48.884;9.182;2023-06-24T13:25:03;2.13;;;2.03;;
20065;SDS011;10193;48.884;9.182;2023-06-24T13:27:31;2.50;;;2.30;;
20065;SDS011;10193;48.884;9.182;2023-06-24T13:29:59;2.35;;;2.17;;
20065;SDS011;10193;48.884;9.182;2023-06-24T13:32:25;2.20;;;2.10;;
20065;SDS011;10193;48.884;9.182;2023-06-24T13:34:52;2.00;;;1.90;;
20065;SDS011;10193;48.884;9.182;2023-06-24T13:37:19;2.13;;;2.03;;
20065;SDS011;10193;48.884;9.182;2023-06-24T13:39:45;2.60;;;2.50;;
20065;SDS011;10193;48.884;9.182;2023-06-24T13:42:12;2.40;;;2.30;;
20065;SDS011;10193;48.884;9.182;2023-06-24T13:44:39;2.42;;;2.25;;
20065;SDS011;10193;48.884;9.182;2023-06-24T13:47:07;2.53;;;2.20;;
20065;SDS011;10193;48.884;9.182;2023-06-24T13:49:34;2.55;;;2.45;;
20065;SDS011;10193;48.884;9.182;2023-06-24T13:52:00;2.30;;;2.20;;
20065;SDS011;10193;48.884;9.182;2023-06-24T13:54:27;2.33;;;2.22;;
20065;SDS011;10193;48.884;9.182;2023-06-24T13:56:57;2.28;;;2.17;;
20065;SDS011;10193;48.884;9.182;2023-06-24T13:59:24;2.53;;;2.35;;
20065;SDS011;10193;48.884;9.182;2023-06-24T14:01:51;2.40;;;2.30;;
20065;SDS011;10193;48.884;9.182;2023-06-24T14:04:19;2.35;;;2.25;;
20065;SDS011;10193;48.884;9.182;2023-06-24T14:06:45;2.10;;;2.00;;
20065;SDS011;10193;48.884;9.182;2023-06-24T14:09:12;2.45;;;2.25;;
20065;SDS011;10193;48.884;9.182;2023-06-24T14:11:39;2.28;;;2.17;;
20065;SDS011;10193;48.884;9.182;2023-06-24T14:14:06;2.80;;;2.60;;
20065;SDS011;10193;48.884;9.182;2023-06-24T14:16:32;2.50;;;2.40;;
20065;SDS011;10193;48.884;9.182;2023-06-24T14:18:59;2.30;;;2.20;;
20065;SDS011;10193;48.884;9.182;2023-06-24T14:21:27;2.72;;;2.30;;
20065;SDS011;10193;48.884;9.182;2023-06-24T14:23:54;2.05;;;1.95;;
20065;SDS011;10193;48.884;9.182;2023-06-24T14:26:20;2.58;;;2.38;;
20065;SDS011;10193;48.884;9.182;2023-06-24T14:28:47;2.35;;;2.17;;
20065;SDS011;10193;48.884;9.182;2023-06-24T14:31:14;2.20;;;2.10;;
20065;SDS011;10193;48.884;9.182;2023-06-24T14:33:40;2.17;;;2.08;;
20065;SDS011;10193;48.884;9.182;2023-06-24T14:36:07;2.30;;;2.10;;
20065;SDS011;10193;48.884;9.182;2023-06-24T14:38:35;2.20;;;2.10;;
20065;SDS011;10193;48.884;9.182;2023-06-24T14:41:02;2.20;;;2.10;;
20065;SDS011;10193;48.884;9.182;2023-06-24T14:43:29;2.58;;;2.38;;
20065;SDS011;10193;48.884;9.182;2023-06-24T14:45:55;2.45;;;2.30;;
20065;SDS011;10193;48.884;9.182;2023-06-24T14:48:22;2.40;;;2.30;;
20065;SDS011;10193;48.884;9.182;2023-06-24T14:50:49;2.30;;;2.20;;